sensor_id;sensor_type;location;lat;lon;timestamp;pressure;altitude;pressure_sealevel;temperature;humidity
70488;BME280;57976;48.174;16.370;2022-11-15T07:25:05;99341.05;;;8.91;100.00
70488;BME280;57976;48.174;16.370;2022-11-15T07:27:29;99339.40;;;8.89;100.00
70488;BME280;57976;48.174;16.370;2022-11-15T07:29:52;99338.62;;;8.89;100.00
70488;BME280;57976;48.174;16.370;2022-11-15T07:32:15;99338.05;;;8.93;100.00
70488;BME280;57976;48.174;16.370;2022-11-15T07:34:38;99335.38;;;8.97;100.00
70488;BME280;57976;48.174;16.370;2022-11-15T07:37:01;99330.40;;;9.01;100.00
70488;BME280;57976;48.174;16.370;2022-11-15T07:39:24;99331.56;;;9.08;100.00
70488;BME280;57976;48.174;16.370;2022-11-15T07:41:48;99325.47;;;9.08;100.00
70488;BME280;57976;48.174;16.370;2022-11-15T07:44:11;99330.35;;;9.06;100.00
70488;BME280;57976;48.174;16.370;2022-11-15T07:46:34;99327.21;;;9.06;100.00
70488;BME280;57976;48.174;16.370;2022-11-15T07:48:57;99329.15;;;9.11;100.00
70488;BME280;57976;48.174;16.370;2022-11-15T07:51:20;99325.16;;;9.14;100.00
70488;BME280;57976;48.174;16.370;2022-11-15T07:53:44;99327.31;;;9.12;100.00
70488;BME280;57976;48.174;16.370;2022-11-15T07:56:08;99323.05;;;9.09;100.00
70488;BME280;57976;48.174;16.370;2022-11-15T07:58:31;99328.61;;;9.07;100.00
70488;BME280;57976;48.174;16.370;2022-11-15T08:00:54;99329.73;;;9.10;100.00
70488;BME280;57976;48.174;16.370;2022-11-15T08:03:18;99332.13;;;9.12;100.00
70488;BME280;57976;48.174;16.370;2022-11-15T08:05:42;99329.06;;;9.12;100.00
70488;BME280;57976;48.174;16.370;2022-11-15T08:08:06;99323.39;;;9.12;100.00
70488;BME280;57976;48.174;16.370;2022-11-15T08:10:33;99321.30;;;9.13;100.00
70488;BME280;57976;48.174;16.370;2022-11-15T08:13:04;99321.48;;;9.16;100.00
70488;BME280;57976;48.174;16.370;2022-11-15T08:15:28;99317.91;;;9.19;100.00
70488;BME280;57976;48.174;16.370;2022-11-15T08:17:56;99317.89;;;9.19;100.00
70488;BME280;57976;48.174;16.370;2022-11-15T08:20:19;99315.46;;;9.18;100.00
70488;BME280;57976;48.174;16.370;2022-11-15T08:22:42;99315.65;;;9.20;100.00
70488;BME280;57976;48.174;16.370;2022-11-15T08:25:06;99318.42;;;9.20;100.00
70488;BME280;57976;48.174;16.370;2022-11-15T08:27:29;99316.27;;;9.21;100.00
70488;BME280;57976;48.174;16.370;2022-11-15T08:29:52;99317.98;;;9.25;100.00
70488;BME280;57976;48.174;16.370;2022-11-15T08:32:21;99310.10;;;9.33;100.00
70488;BME280;57976;48.174;16.370;2022-11-15T08:34:45;99309.78;;;9.34;100.00
70488;BME280;57976;48.174;16.370;2022-11-15T08:37:08;99312.52;;;9.39;100.00
70488;BME280;57976;48.174;16.370;2022-11-15T08:39:32;99307.69;;;9.39;100.00
70488;BME280;57976;48.174;16.370;2022-11-15T08:41:55;99311.56;;;9.38;100.00
70488;BME280;57976;48.174;16.370;2022-11-15T08:44:19;99309.48;;;9.39;100.00
70488;BME280;57976;48.174;16.370;2022-11-15T08:46:42;99307.22;;;9.41;100.00
70488;BME280;57976;48.174;16.370;2022-11-15T08:49:05;99309.69;;;9.44;100.00
70488;BME280;57976;48.174;16.370;2022-11-15T08:51:28;99319.45;;;9.48;100.00
70488;BME280;57976;48.174;16.370;2022-11-15T08:53:51;99319.35;;;9.45;100.00
70488;BME280;57976;48.174;16.370;2022-11-15T08:56:15;99312.48;;;9.42;100.00
70488;BME280;57976;48.174;16.370;2022-11-15T08:58:39;99309.61;;;9.34;100.00
70488;BME280;57976;48.174;16.370;2022-11-15T09:01:02;99308.98;;;9.21;100.00
70488;BME280;57976;48.174;16.370;2022-11-15T09:03:27;99303.63;;;9.16;100.00
70488;BME280;57976;48.174;16.370;2022-11-15T09:05:55;99311.35;;;9.09;100.00
70488;BME280;57976;48.174;16.370;2022-11-15T09:08:19;99316.04;;;9.06;100.00
70488;BME280;57976;48.174;16.370;2022-11-15T09:11:05;99315.55;;;9.04;100.00
70488;BME280;57976;48.174;16.370;2022-11-15T09:13:29;99315.54;;;9.03;100.00
70488;BME280;57976;48.174;16.370;2022-11-15T09:15:52;99308.04;;;9.02;100.00
70488;BME280;57976;48.174;16.370;2022-11-15T09:18:15;99302.21;;;9.03;100.00
70488;BME280;57976;48.174;16.370;2022-11-15T09:20:39;99293.52;;;9.06;100.00
70488;BME280;57976;48.174;16.370;2022-11-15T09:23:02;99297.34;;;9.11;100.00
70488;BME280;57976;48.174;16.370;2022-11-15T09:25:26;99286.95;;;9.06;100.00
70488;BME280;57976;48.174;16.370;2022-11-15T09:27:50;99290.77;;;9.04;100.00
70488;BME280;57976;48.174;16.370;2022-11-15T09:30:14;99293.51;;;8.99;100.00
70488;BME280;57976;48.174;16.370;2022-11-15T09:32:38;99293.93;;;9.02;100.00
70488;BME280;57976;48.174;16.370;2022-11-15T09:35:01;99289.88;;;9.05;100.00
70488;BME280;57976;48.174;16.370;2022-11-15T09:37:25;99281.58;;;9.15;100.00
70488;BME280;57976;48.174;16.370;2022-11-15T09:39:48;99279.60;;;9.22;100.00
70488;BME280;57976;48.174;16.370;2022-11-15T09:42:28;99274.95;;;9.24;100.00
70488;BME280;57976;48.174;16.370;2022-11-15T09:45:09;99268.71;;;9.21;100.00
70488;BME280;57976;48.174;16.370;2022-11-15T09:50:26;99263.48;;;9.29;100.00
70488;BME280;57976;48.174;16.370;2022-11-15T09:52:39;99259.89;;;9.21;100.00
70488;BME280;57976;48.174;16.370;2022-11-15T09:54:49;99257.90;;;9.13;100.00
70488;BME280;57976;48.174;16.370;2022-11-15T09:57:06;99256.83;;;9.13;100.00
70488;BME280;57976;48.174;16.370;2022-11-15T09:59:27;99250.82;;;9.18;100.00
70488;BME280;57976;48.174;16.370;2022-11-15T10:01:41;99245.59;;;9.25;100.00
70488;BME280;57976;48.174;16.370;2022-11-15T10:03:49;99242.25;;;9.27;100.00
70488;BME280;57976;48.174;16.370;2022-11-15T10:05:59;99245.17;;;9.29;100.00
70488;BME280;57976;48.174;16.370;2022-11-15T10:08:10;99241.63;;;9.30;100.00
70488;BME280;57976;48.174;16.370;2022-11-15T10:10:23;99243.99;;;9.37;100.00
70488;BME280;57976;48.174;16.370;2022-11-15T10:12:30;99246.08;;;9.41;100.00
70488;BME280;57976;48.174;16.370;2022-11-15T10:14:36;99240.42;;;9.41;100.00
70488;BME280;57976;48.174;16.370;2022-11-15T10:16:58;99237.73;;;9.37;100.00
70488;BME280;57976;48.174;16.370;2022-11-15T10:19:14;99228.52;;;9.33;100.00
70488;BME280;57976;48.174;16.370;2022-11-15T10:21:23;99220.66;;;9.34;100.00
70488;BME280;57976;48.174;16.370;2022-11-15T10:23:30;99216.48;;;9.40;100.00
70488;BME280;57976;48.174;16.370;2022-11-15T10:25:36;99209.81;;;9.43;100.00
70488;BME280;57976;48.174;16.370;2022-11-15T10:27:44;99206.61;;;9.50;100.00
70488;BME280;57976;48.174;16.370;2022-11-15T10:29:50;99207.41;;;9.56;100.00
70488;BME280;57976;48.174;16.370;2022-11-15T10:31:55;99210.27;;;9.60;100.00
70488;BME280;57976;48.174;16.370;2022-11-15T10:34:12;99203.99;;;9.62;100.00
70488;BME280;57976;48.174;16.370;2022-11-15T10:36:21;99199.01;;;9.61;100.00
70488;BME280;57976;48.174;16.370;2022-11-15T10:38:26;99192.30;;;9.61;100.00
70488;BME280;57976;48.174;16.370;2022-11-15T10:40:30;99188.34;;;9.63;100.00
70488;BME280;57976;48.174;16.370;2022-11-15T10:42:35;99191.56;;;9.65;100.00
70488;BME280;57976;48.174;16.370;2022-11-15T10:44:43;99190.27;;;9.67;100.00
70488;BME280;57976;48.174;16.370;2022-11-15T10:47:03;99183.11;;;9.66;100.00
70488;BME280;57976;48.174;16.370;2022-11-15T10:49:19;99180.70;;;9.69;100.00
70488;BME280;57976;48.174;16.370;2022-11-15T10:51:27;99176.00;;;9.71;100.00
70488;BME280;57976;48.174;16.370;2022-11-15T10:53:37;99168.84;;;9.70;100.00
70488;BME280;57976;48.174;16.370;2022-11-15T10:55:48;99169.58;;;9.71;100.00
70488;BME280;57976;48.174;16.370;2022-11-15T10:57:56;99164.11;;;9.72;100.00
70488;BME280;57976;48.174;16.370;2022-11-15T11:00:07;99162.27;;;9.75;100.00
70488;BME280;57976;48.174;16.370;2022-11-15T11:02:31;99159.79;;;9.78;100.00
70488;BME280;57976;48.174;16.370;2022-11-15T11:04:50;99161.81;;;9.81;100.00
70488;BME280;57976;48.174;16.370;2022-11-15T11:06:56;99155.84;;;9.84;100.00
70488;BME280;57976;48.174;16.370;2022-11-15T11:09:03;99152.69;;;9.80;100.00
70488;BME280;57976;48.174;16.370;2022-11-15T11:11:08;99155.02;;;9.74;100.00
70488;BME280;57976;48.174;16.370;2022-11-15T11:13:22;99153.70;;;9.73;100.00
70488;BME280;57976;48.174;16.370;2022-11-15T11:15:28;99150.93;;;9.71;100.00
70488;BME280;57976;48.174;16.370;2022-11-15T11:17:50;99147.02;;;9.74;100.00
70488;BME280;57976;48.174;16.370;2022-11-15T11:20:02;99137.23;;;9.79;100.00
70488;BME280;57976;48.174;16.370;2022-11-15T11:22:20;99132.42;;;9.85;100.00
70488;BME280;57976;48.174;16.370;2022-11-15T11:24:34;99133.93;;;9.82;100.00
70488;BME280;57976;48.174;16.370;2022-11-15T11:26:45;99124.96;;;9.80;100.00
70488;BME280;57976;48.174;16.370;2022-11-15T11:28:56;99127.54;;;9.80;100.00
70488;BME280;57976;48.174;16.370;2022-11-15T11:31:15;99124.11;;;9.82;100.00
70488;BME280;57976;48.174;16.370;2022-11-15T11:33:24;99121.08;;;9.81;100.00
70488;BME280;57976;48.174;16.370;2022-11-15T11:35:37;99117.33;;;9.82;100.00
70488;BME280;57976;48.174;16.370;2022-11-15T11:37:49;99118.36;;;9.87;100.00
70488;BME280;57976;48.174;16.370;2022-11-15T11:40:02;99113.77;;;9.87;100.00
70488;BME280;57976;48.174;16.370;2022-11-15T11:42:22;99111.48;;;9.90;100.00
70488;BME280;57976;48.174;16.370;2022-11-15T11:44:49;99104.88;;;9.85;100.00
70488;BME280;57976;48.174;16.370;2022-11-15T11:47:01;99102.91;;;9.81;100.00
70488;BME280;57976;48.174;16.370;2022-11-15T11:49:10;99099.04;;;9.85;100.00
70488;BME280;57976;48.174;16.370;2022-11-15T11:51:23;99096.13;;;9.90;100.00
70488;BME280;57976;48.174;16.370;2022-11-15T11:53:34;99090.52;;;9.91;100.00
70488;BME280;57976;48.174;16.370;2022-11-15T11:55:45;99081.23;;;9.95;100.00
70488;BME280;57976;48.174;16.370;2022-11-15T11:57:56;99079.52;;;9.98;100.00
70488;BME280;57976;48.174;16.370;2022-11-15T12:00:12;99074.61;;;9.99;100.00
70488;BME280;57976;48.174;16.370;2022-11-15T12:02:29;99074.16;;;9.99;100.00
70488;BME280;57976;48.174;16.370;2022-11-15T12:04:40;99072.25;;;10.02;100.00
70488;BME280;57976;48.174;16.370;2022-11-15T12:06:52;99070.45;;;10.05;100.00
70488;BME280;57976;48.174;16.370;2022-11-15T12:09:02;99063.40;;;10.05;100.00
70488;BME280;57976;48.174;16.370;2022-11-15T12:11:12;99061.59;;;10.05;100.00
70488;BME280;57976;48.174;16.370;2022-11-15T12:13:21;99059.52;;;10.09;100.00
70488;BME280;57976;48.174;16.370;2022-11-15T12:15:29;99057.83;;;10.15;100.00
70488;BME280;57976;48.174;16.370;2022-11-15T12:17:37;99055.70;;;10.15;100.00
70488;BME280;57976;48.174;16.370;2022-11-15T12:19:44;99050.13;;;10.19;100.00
70488;BME280;57976;48.174;16.370;2022-11-15T12:21:52;99040.01;;;10.23;100.00
70488;BME280;57976;48.174;16.370;2022-11-15T12:24:02;99037.96;;;10.28;100.00
70488;BME280;57976;48.174;16.370;2022-11-15T12:26:14;99032.89;;;10.31;100.00
70488;BME280;57976;48.174;16.370;2022-11-15T12:28:24;99025.14;;;10.33;100.00
70488;BME280;57976;48.174;16.370;2022-11-15T12:30:44;99024.90;;;10.31;100.00
70488;BME280;57976;48.174;16.370;2022-11-15T12:32:55;99021.20;;;10.28;100.00
70488;BME280;57976;48.174;16.370;2022-11-15T12:35:03;99019.33;;;10.24;100.00
70488;BME280;57976;48.174;16.370;2022-11-15T12:40:20;99015.94;;;10.23;100.00
70488;BME280;57976;48.174;16.370;2022-11-15T12:42:41;99013.59;;;10.28;100.00
70488;BME280;57976;48.174;16.370;2022-11-15T12:45:01;99011.52;;;10.38;100.00
70488;BME280;57976;48.174;16.370;2022-11-15T12:47:23;99014.91;;;10.43;100.00
70488;BME280;57976;48.174;16.370;2022-11-15T12:49:45;99013.27;;;10.45;100.00
70488;BME280;57976;48.174;16.370;2022-11-15T12:52:05;99012.05;;;10.48;100.00
70488;BME280;57976;48.174;16.370;2022-11-15T12:59:49;99001.31;;;10.24;100.00
70488;BME280;57976;48.174;16.370;2022-11-15T13:02:01;98995.50;;;10.21;100.00
70488;BME280;57976;48.174;16.370;2022-11-15T13:04:23;98990.28;;;10.23;100.00
70488;BME280;57976;48.174;16.370;2022-11-15T13:06:41;98986.48;;;10.24;100.00
70488;BME280;57976;48.174;16.370;2022-11-15T13:08:51;98983.23;;;10.24;100.00
70488;BME280;57976;48.174;16.370;2022-11-15T13:10:55;98978.22;;;10.21;100.00
70488;BME280;57976;48.174;16.370;2022-11-15T13:13:01;98981.00;;;10.15;100.00
70488;BME280;57976;48.174;16.370;2022-11-15T13:15:40;98977.63;;;10.10;100.00
70488;BME280;57976;48.174;16.370;2022-11-15T13:17:50;98972.09;;;10.08;100.00
70488;BME280;57976;48.174;16.370;2022-11-15T13:20:01;98968.79;;;10.09;100.00
70488;BME280;57976;48.174;16.370;2022-11-15T13:22:09;98967.20;;;10.11;100.00
70488;BME280;57976;48.174;16.370;2022-11-15T13:24:17;98963.33;;;10.14;100.00
70488;BME280;57976;48.174;16.370;2022-11-15T13:26:22;98962.57;;;10.18;100.00
70488;BME280;57976;48.174;16.370;2022-11-15T13:28:33;98960.13;;;10.22;100.00
70488;BME280;57976;48.174;16.370;2022-11-15T13:30:39;98962.48;;;10.27;100.00
70488;BME280;57976;48.174;16.370;2022-11-15T13:32:44;98958.79;;;10.26;100.00
70488;BME280;57976;48.174;16.370;2022-11-15T13:34:50;98959.33;;;10.28;100.00
70488;BME280;57976;48.174;16.370;2022-11-15T13:36:56;98958.80;;;10.30;100.00
70488;BME280;57976;48.174;16.370;2022-11-15T13:39:04;98958.83;;;10.33;100.00
70488;BME280;57976;48.174;16.370;2022-11-15T13:41:21;98951.89;;;10.35;100.00
70488;BME280;57976;48.174;16.370;2022-11-15T13:43:36;98947.14;;;10.35;100.00
70488;BME280;57976;48.174;16.370;2022-11-15T13:45:41;98945.23;;;10.33;100.00
70488;BME280;57976;48.174;16.370;2022-11-15T13:47:47;98947.70;;;10.31;100.00
70488;BME280;57976;48.174;16.370;2022-11-15T13:49:57;98947.48;;;10.29;100.00
70488;BME280;57976;48.174;16.370;2022-11-15T13:52:04;98949.55;;;10.24;100.00
70488;BME280;57976;48.174;16.370;2022-11-15T13:54:18;98948.36;;;10.21;100.00
70488;BME280;57976;48.174;16.370;2022-11-15T13:56:25;98941.57;;;10.21;100.00
70488;BME280;57976;48.174;16.370;2022-11-15T13:58:32;98935.30;;;10.23;100.00
70488;BME280;57976;48.174;16.370;2022-11-15T14:00:39;98927.71;;;10.26;100.00
70488;BME280;57976;48.174;16.370;2022-11-15T14:02:44;98923.54;;;10.26;100.00
70488;BME280;57976;48.174;16.370;2022-11-15T14:04:51;98918.83;;;10.24;100.00
70488;BME280;57976;48.174;16.370;2022-11-15T14:06:57;98914.81;;;10.23;100.00
70488;BME280;57976;48.174;16.370;2022-11-15T14:09:25;98911.33;;;10.25;100.00
70488;BME280;57976;48.174;16.370;2022-11-15T14:11:33;98905.96;;;10.25;100.00
70488;BME280;57976;48.174;16.370;2022-11-15T14:13:38;98903.68;;;10.22;100.00
70488;BME280;57976;48.174;16.370;2022-11-15T14:15:43;98903.90;;;10.18;100.00
70488;BME280;57976;48.174;16.370;2022-11-15T14:17:48;98901.40;;;10.19;100.00
70488;BME280;57976;48.174;16.370;2022-11-15T14:19:53;98899.75;;;10.21;100.00
70488;BME280;57976;48.174;16.370;2022-11-15T14:22:20;98900.90;;;10.22;100.00
70488;BME280;57976;48.174;16.370;2022-11-15T14:24:31;98902.20;;;10.22;100.00
70488;BME280;57976;48.174;16.370;2022-11-15T14:26:36;98903.80;;;10.25;100.00
70488;BME280;57976;48.174;16.370;2022-11-15T14:28:40;98902.30;;;10.29;100.00
70488;BME280;57976;48.174;16.370;2022-11-15T14:30:46;98903.25;;;10.32;100.00
70488;BME280;57976;48.174;16.370;2022-11-15T14:32:51;98903.58;;;10.32;100.00
70488;BME280;57976;48.174;16.370;2022-11-15T14:34:57;98904.79;;;10.35;100.00
70488;BME280;57976;48.174;16.370;2022-11-15T14:37:02;98901.79;;;10.37;100.00
70488;BME280;57976;48.174;16.370;2022-11-15T14:39:07;98901.34;;;10.38;100.00
70488;BME280;57976;48.174;16.370;2022-11-15T14:41:19;98901.60;;;10.36;100.00
70488;BME280;57976;48.174;16.370;2022-11-15T14:43:24;98898.41;;;10.32;100.00
70488;BME280;57976;48.174;16.370;2022-11-15T14:45:29;98896.24;;;10.32;100.00
70488;BME280;57976;48.174;16.370;2022-11-15T14:47:34;98894.70;;;10.31;100.00
70488;BME280;57976;48.174;16.370;2022-11-15T14:49:38;98890.02;;;10.28;100.00
70488;BME280;57976;48.174;16.370;2022-11-15T14:51:43;98888.79;;;10.30;100.00
70488;BME280;57976;48.174;16.370;2022-11-15T14:53:48;98889.41;;;10.32;100.00
70488;BME280;57976;48.174;16.370;2022-11-15T14:55:53;98887.42;;;10.34;100.00
70488;BME280;57976;48.174;16.370;2022-11-15T14:57:57;98887.77;;;10.42;100.00
70488;BME280;57976;48.174;16.370;2022-11-15T15:00:05;98887.20;;;10.50;100.00
70488;BME280;57976;48.174;16.370;2022-11-15T15:02:20;98880.27;;;10.55;100.00
70488;BME280;57976;48.174;16.370;2022-11-15T15:04:25;98872.57;;;10.53;100.00
70488;BME280;57976;48.174;16.370;2022-11-15T15:06:29;98874.36;;;10.53;100.00
70488;BME280;57976;48.174;16.370;2022-11-15T15:08:36;98873.16;;;10.54;100.00
70488;BME280;57976;48.174;16.370;2022-11-15T15:10:45;98867.20;;;10.54;100.00
70488;BME280;57976;48.174;16.370;2022-11-15T15:12:54;98865.23;;;10.52;100.00
70488;BME280;57976;48.174;16.370;2022-11-15T15:14:58;98866.48;;;10.56;100.00
70488;BME280;57976;48.174;16.370;2022-11-15T15:17:06;98871.80;;;10.59;100.00
70488;BME280;57976;48.174;16.370;2022-11-15T15:19:10;98874.11;;;10.62;100.00
70488;BME280;57976;48.174;16.370;2022-11-15T15:21:23;98875.88;;;10.65;100.00
70488;BME280;57976;48.174;16.370;2022-11-15T15:23:28;98878.57;;;10.65;100.00
70488;BME280;57976;48.174;16.370;2022-11-15T15:25:36;98875.77;;;10.67;100.00
70488;BME280;57976;48.174;16.370;2022-11-15T15:27:41;98874.63;;;10.69;100.00
70488;BME280;57976;48.174;16.370;2022-11-15T15:29:47;98873.28;;;10.67;100.00
70488;BME280;57976;48.174;16.370;2022-11-15T15:31:51;98869.15;;;10.65;100.00
70488;BME280;57976;48.174;16.370;2022-11-15T15:33:56;98866.45;;;10.65;100.00
70488;BME280;57976;48.174;16.370;2022-11-15T15:36:00;98865.92;;;10.66;100.00
70488;BME280;57976;48.174;16.370;2022-11-15T15:38:05;98869.85;;;10.66;100.00
70488;BME280;57976;48.174;16.370;2022-11-15T15:40:15;98862.50;;;10.66;100.00
70488;BME280;57976;48.174;16.370;2022-11-15T15:42:21;98862.98;;;10.67;100.00
70488;BME280;57976;48.174;16.370;2022-11-15T15:44:29;98855.45;;;10.67;100.00
70488;BME280;57976;48.174;16.370;2022-11-15T15:46:35;98851.38;;;10.69;100.00
70488;BME280;57976;48.174;16.370;2022-11-15T15:48:39;98845.93;;;10.69;100.00
70488;BME280;57976;48.174;16.370;2022-11-15T15:50:44;98843.73;;;10.72;100.00
70488;BME280;57976;48.174;16.370;2022-11-15T15:52:49;98846.05;;;10.76;100.00
70488;BME280;57976;48.174;16.370;2022-11-15T15:54:54;98845.57;;;10.74;99.95
70488;BME280;57976;48.174;16.370;2022-11-15T15:56:59;98844.94;;;10.71;99.94
70488;BME280;57976;48.174;16.370;2022-11-15T15:59:04;98841.51;;;10.68;100.00
70488;BME280;57976;48.174;16.370;2022-11-15T16:01:08;98842.01;;;10.67;100.00
70488;BME280;57976;48.174;16.370;2022-11-15T16:03:13;98840.90;;;10.67;100.00
70488;BME280;57976;48.174;16.370;2022-11-15T16:05:18;98839.91;;;10.68;100.00
70488;BME280;57976;48.174;16.370;2022-11-15T16:07:23;98841.63;;;10.68;100.00
70488;BME280;57976;48.174;16.370;2022-11-15T16:09:31;98838.64;;;10.68;100.00
70488;BME280;57976;48.174;16.370;2022-11-15T16:11:36;98832.04;;;10.70;100.00
70488;BME280;57976;48.174;16.370;2022-11-15T16:13:41;98828.06;;;10.70;100.00
70488;BME280;57976;48.174;16.370;2022-11-15T16:15:46;98831.30;;;10.70;100.00
70488;BME280;57976;48.174;16.370;2022-11-15T16:17:55;98832.84;;;10.72;100.00
70488;BME280;57976;48.174;16.370;2022-11-15T16:20:00;98835.76;;;10.70;100.00
70488;BME280;57976;48.174;16.370;2022-11-15T16:22:05;98834.05;;;10.68;99.99
70488;BME280;57976;48.174;16.370;2022-11-15T16:24:10;98832.35;;;10.66;99.99
70488;BME280;57976;48.174;16.370;2022-11-15T16:26:20;98831.77;;;10.65;100.00
70488;BME280;57976;48.174;16.370;2022-11-15T16:28:27;98827.30;;;10.64;99.99
70488;BME280;57976;48.174;16.370;2022-11-15T16:30:32;98826.13;;;10.63;100.00
70488;BME280;57976;48.174;16.370;2022-11-15T16:32:36;98825.52;;;10.62;100.00
70488;BME280;57976;48.174;16.370;2022-11-15T16:34:41;98820.97;;;10.56;100.00
70488;BME280;57976;48.174;16.370;2022-11-15T16:36:55;98821.27;;;10.52;99.93
70488;BME280;57976;48.174;16.370;2022-11-15T16:39:00;98822.51;;;10.51;100.00
70488;BME280;57976;48.174;16.370;2022-11-15T16:41:05;98831.71;;;10.52;100.00
70488;BME280;57976;48.174;16.370;2022-11-15T16:43:10;98833.52;;;10.52;99.92
70488;BME280;57976;48.174;16.370;2022-11-15T16:45:16;98833.58;;;10.50;100.00
70488;BME280;57976;48.174;16.370;2022-11-15T16:47:20;98833.99;;;10.49;99.89
70488;BME280;57976;48.174;16.370;2022-11-15T16:49:25;98828.09;;;10.47;100.00
70488;BME280;57976;48.174;16.370;2022-11-15T16:51:30;98828.38;;;10.47;99.97
70488;BME280;57976;48.174;16.370;2022-11-15T16:53:35;98827.06;;;10.47;100.00
70488;BME280;57976;48.174;16.370;2022-11-15T16:55:43;98822.11;;;10.50;100.00
70488;BME280;57976;48.174;16.370;2022-11-15T16:57:51;98816.48;;;10.51;99.97
70488;BME280;57976;48.174;16.370;2022-11-15T16:59:56;98812.34;;;10.51;100.00
70488;BME280;57976;48.174;16.370;2022-11-15T17:02:03;98810.91;;;10.51;100.00
70488;BME280;57976;48.174;16.370;2022-11-15T17:04:09;98809.41;;;10.46;100.00
70488;BME280;57976;48.174;16.370;2022-11-15T17:06:15;98814.23;;;10.44;99.94
70488;BME280;57976;48.174;16.370;2022-11-15T17:08:20;98814.55;;;10.41;100.00
70488;BME280;57976;48.174;16.370;2022-11-15T17:10:26;98819.42;;;10.42;100.00
70488;BME280;57976;48.174;16.370;2022-11-15T17:12:30;98819.39;;;10.42;100.00
70488;BME280;57976;48.174;16.370;2022-11-15T17:14:35;98819.64;;;10.43;100.00
70488;BME280;57976;48.174;16.370;2022-11-15T17:16:40;98818.49;;;10.44;100.00
70488;BME280;57976;48.174;16.370;2022-11-15T17:18:49;98819.31;;;10.42;100.00
70488;BME280;57976;48.174;16.370;2022-11-15T17:20:54;98815.41;;;10.42;100.00
70488;BME280;57976;48.174;16.370;2022-11-15T17:22:59;98811.89;;;10.41;100.00
70488;BME280;57976;48.174;16.370;2022-11-15T17:25:05;98808.81;;;10.42;100.00
70488;BME280;57976;48.174;16.370;2022-11-15T17:27:10;98812.71;;;10.42;100.00
70488;BME280;57976;48.174;16.370;2022-11-15T17:29:16;98811.37;;;10.43;100.00
70488;BME280;57976;48.174;16.370;2022-11-15T17:31:21;98807.50;;;10.44;100.00
70488;BME280;57976;48.174;16.370;2022-11-15T17:33:28;98806.12;;;10.41;99.98
70488;BME280;57976;48.174;16.370;2022-11-15T17:35:35;98801.06;;;10.38;100.00
70488;BME280;57976;48.174;16.370;2022-11-15T17:37:40;98796.73;;;10.34;100.00
70488;BME280;57976;48.174;16.370;2022-11-15T17:39:45;98792.41;;;10.33;100.00
70488;BME280;57976;48.174;16.370;2022-11-15T17:41:51;98793.77;;;10.30;100.00
70488;BME280;57976;48.174;16.370;2022-11-15T17:43:58;98800.00;;;10.27;100.00
70488;BME280;57976;48.174;16.370;2022-11-15T17:46:06;98795.34;;;10.26;100.00
70488;BME280;57976;48.174;16.370;2022-11-15T17:48:12;98793.14;;;10.26;100.00
70488;BME280;57976;48.174;16.370;2022-11-15T17:50:18;98790.13;;;10.27;100.00
70488;BME280;57976;48.174;16.370;2022-11-15T17:52:23;98784.61;;;10.27;100.00
70488;BME280;57976;48.174;16.370;2022-11-15T17:54:28;98785.45;;;10.30;100.00
70488;BME280;57976;48.174;16.370;2022-11-15T17:56:33;98779.55;;;10.31;100.00
70488;BME280;57976;48.174;16.370;2022-11-15T17:58:45;98774.83;;;10.33;100.00
70488;BME280;57976;48.174;16.370;2022-11-15T18:00:51;98768.15;;;10.33;100.00
70488;BME280;57976;48.174;16.370;2022-11-15T18:02:59;98774.14;;;10.33;100.00
70488;BME280;57976;48.174;16.370;2022-11-15T18:05:10;98765.70;;;10.34;100.00
70488;BME280;57976;48.174;16.370;2022-11-15T18:07:15;98763.63;;;10.36;100.00
70488;BME280;57976;48.174;16.370;2022-11-15T18:09:21;98759.65;;;10.38;100.00
70488;BME280;57976;48.174;16.370;2022-11-15T18:11:29;98754.73;;;10.39;100.00
70488;BME280;57976;48.174;16.370;2022-11-15T18:13:36;98752.69;;;10.38;100.00
70488;BME280;57976;48.174;16.370;2022-11-15T18:15:46;98753.92;;;10.37;100.00
70488;BME280;57976;48.174;16.370;2022-11-15T18:17:53;98750.96;;;10.38;100.00
70488;BME280;57976;48.174;16.370;2022-11-15T18:20:06;98749.54;;;10.38;100.00
70488;BME280;57976;48.174;16.370;2022-11-15T18:22:11;98743.98;;;10.39;100.00
70488;BME280;57976;48.174;16.370;2022-11-15T18:24:16;98741.23;;;10.37;100.00
70488;BME280;57976;48.174;16.370;2022-11-15T18:26:23;98747.55;;;10.33;100.00
70488;BME280;57976;48.174;16.370;2022-11-15T18:28:32;98749.00;;;10.29;100.00
70488;BME280;57976;48.174;16.370;2022-11-15T18:30:40;98754.16;;;10.29;100.00
70488;BME280;57976;48.174;16.370;2022-11-15T18:32:46;98752.69;;;10.31;100.00
70488;BME280;57976;48.174;16.370;2022-11-15T18:34:55;98748.23;;;10.33;100.00
70488;BME280;57976;48.174;16.370;2022-11-15T18:37:02;98745.02;;;10.37;100.00
70488;BME280;57976;48.174;16.370;2022-11-15T18:39:08;98741.98;;;10.41;100.00
70488;BME280;57976;48.174;16.370;2022-11-15T18:41:16;98738.08;;;10.44;100.00
70488;BME280;57976;48.174;16.370;2022-11-15T18:43:25;98737.42;;;10.47;100.00
70488;BME280;57976;48.174;16.370;2022-11-15T18:45:31;98736.57;;;10.48;100.00
70488;BME280;57976;48.174;16.370;2022-11-15T18:47:37;98735.66;;;10.48;100.00
70488;BME280;57976;48.174;16.370;2022-11-15T18:49:42;98732.52;;;10.48;100.00
70488;BME280;57976;48.174;16.370;2022-11-15T18:51:52;98735.63;;;10.46;100.00
70488;BME280;57976;48.174;16.370;2022-11-15T18:54:02;98737.90;;;10.45;100.00
70488;BME280;57976;48.174;16.370;2022-11-15T18:56:09;98741.09;;;10.46;100.00
70488;BME280;57976;48.174;16.370;2022-11-15T18:58:17;98737.94;;;10.46;100.00
70488;BME280;57976;48.174;16.370;2022-11-15T19:00:24;98735.76;;;10.45;100.00